Time;durP1;ratioP1;P1;durP2;ratioP2;P2;SDS_P1;SDS_P2;PMS_P1;PMS_P2;Temp;Humidity;BMP_temperature;BMP_pressure;BME280_temperature;BME280_humidity;BME280_pressure;Samples;Min_cycle;Max_cycle;Signal;HPM_P1;HPM_P2
2021/06/13 00:01:12;;;;;;;5.57;3.40;;;18.90;99.90;;;;;;5034392;28;20037;-81
2021/06/13 00:03:37;;;;;;;5.20;2.88;;;18.80;99.90;;;;;;5045420;28;20044;-80
2021/06/13 00:06:04;;;;;;;6.07;3.60;;;18.90;99.90;;;;;;5017317;28;20030;-81
2021/06/13 00:08:30;;;;;;;6.00;3.63;;;18.80;99.90;;;;;;5033332;28;20044;-81
2021/06/13 00:10:57;;;;;;;4.65;2.80;;;18.80;99.90;;;;;;5031576;28;20108;-81
2021/06/13 00:13:23;;;;;;;5.88;3.42;;;18.80;99.90;;;;;;5030122;28;20037;-81
2021/06/13 00:15:50;;;;;;;6.72;3.78;;;18.80;99.90;;;;;;5034938;28;20025;-81
2021/06/13 00:18:15;;;;;;;6.20;3.50;;;18.80;99.90;;;;;;5036639;28;20024;-81
2021/06/13 00:20:41;;;;;;;6.15;3.22;;;18.70;99.90;;;;;;5032866;28;20025;-81
2021/06/13 00:23:07;;;;;;;6.35;3.47;;;18.70;99.90;;;;;;5035138;28;20082;-81
2021/06/13 00:25:32;;;;;;;6.53;3.53;;;18.70;99.90;;;;;;5032944;28;20061;-82
2021/06/13 00:27:58;;;;;;;5.97;3.45;;;18.70;99.90;;;;;;5032389;28;20025;-81
2021/06/13 00:30:25;;;;;;;6.47;3.28;;;18.70;99.90;;;;;;5014190;28;20494;-79
2021/06/13 00:32:50;;;;;;;6.72;3.10;;;18.60;99.90;;;;;;5031688;28;20026;-80
2021/06/13 00:35:18;;;;;;;6.93;3.55;;;18.60;99.90;;;;;;5032295;28;20029;-79
2021/06/13 00:37:43;;;;;;;6.82;3.67;;;18.60;99.90;;;;;;5049143;28;20025;-79
2021/06/13 00:40:09;;;;;;;6.18;3.20;;;18.60;99.90;;;;;;5033303;28;20033;-79
2021/06/13 00:42:37;;;;;;;5.07;3.30;;;18.70;99.90;;;;;;5051490;28;20040;-80
2021/06/13 00:45:05;;;;;;;5.75;3.38;;;18.70;99.90;;;;;;5043675;28;20472;-79
2021/06/13 00:47:30;;;;;;;6.85;3.65;;;18.70;99.90;;;;;;5036739;28;20112;-80
2021/06/13 00:49:56;;;;;;;5.35;3.33;;;18.60;99.90;;;;;;5031440;28;20057;-80
2021/06/13 00:52:24;;;;;;;6.80;3.17;;;18.60;99.90;;;;;;5013141;28;20087;-78
2021/06/13 00:54:49;;;;;;;6.97;3.10;;;18.60;99.50;;;;;;5030786;28;20138;-79
2021/06/13 00:57:15;;;;;;;7.55;3.15;;;18.50;99.50;;;;;;5013832;28;20458;-80
2021/06/13 00:59:41;;;;;;;6.75;3.15;;;18.50;99.20;;;;;;5031234;28;20029;-80
2021/06/13 01:02:06;;;;;;;4.85;2.85;;;18.40;99.60;;;;;;5031159;28;20163;-80
2021/06/13 01:04:33;;;;;;;5.93;3.15;;;18.40;99.90;;;;;;5029257;28;20452;-80
2021/06/13 01:07:06;;;;;;;6.20;3.00;;;18.40;99.40;;;;;;5013720;28;20021;-80
2021/06/13 01:09:41;;;;;;;5.47;2.92;;;18.50;99.60;;;;;;5030603;28;20064;-79
2021/06/13 01:12:16;;;;;;;5.75;3.30;;;18.50;99.30;;;;;;5031582;28;20040;-81
2021/06/13 01:15:01;;;;;;;5.95;3.25;;;18.50;99.00;;;;;;5034229;28;20053;-81
2021/06/13 01:17:41;;;;;;;6.82;3.38;;;18.50;99.30;;;;;;5039808;28;20036;-80
2021/06/13 01:20:19;;;;;;;5.88;2.90;;;18.50;99.60;;;;;;5031989;28;20090;-80
2021/06/13 01:23:06;;;;;;;6.50;3.17;;;18.50;99.40;;;;;;5030078;28;20120;-80
2021/06/13 01:26:00;;;;;;;5.75;2.80;;;18.50;99.70;;;;;;5030596;28;20022;-80
2021/06/13 01:29:00;;;;;;;6.60;3.70;;;18.60;99.80;;;;;;5031997;28;20083;-80
2021/06/13 01:31:39;;;;;;;6.95;3.30;;;18.60;99.90;;;;;;5030106;28;20025;-79
2021/06/13 01:34:10;;;;;;;5.28;3.20;;;18.60;99.90;;;;;;5040053;28;20017;-79
2021/06/13 01:36:36;;;;;;;5.15;2.85;;;18.60;99.70;;;;;;5050192;28;20111;-80
2021/06/13 01:39:12;;;;;;;6.18;3.33;;;18.60;99.80;;;;;;5048821;28;20029;-80
2021/06/13 01:41:38;;;;;;;4.45;2.85;;;18.50;99.10;;;;;;5027150;28;20033;-80
2021/06/13 01:44:06;;;;;;;6.03;3.03;;;18.40;99.00;;;;;;5051418;28;20050;-80
2021/06/13 01:46:35;;;;;;;5.70;3.30;;;18.40;99.10;;;;;;5034004;28;20047;-80
2021/06/13 01:49:03;;;;;;;5.63;3.00;;;18.30;99.40;;;;;;5063036;28;20029;-80
2021/06/13 01:51:30;;;;;;;6.82;3.30;;;18.30;99.40;;;;;;5013862;28;20029;-80
2021/06/13 01:53:56;;;;;;;7.05;3.22;;;18.20;98.90;;;;;;5031012;28;20116;-80
2021/06/13 01:56:24;;;;;;;7.72;2.85;;;18.20;99.30;;;;;;5030105;28;20068;-81
2021/06/13 01:58:52;;;;;;;6.07;2.75;;;18.10;99.40;;;;;;5033968;28;20036;-80
2021/06/13 02:01:21;;;;;;;6.03;3.10;;;18.10;99.00;;;;;;5034756;28;20040;-80
2021/06/13 02:03:50;;;;;;;5.85;3.08;;;18.10;99.30;;;;;;5034518;28;20025;-80
2021/06/13 02:06:19;;;;;;;5.95;2.80;;;18.10;98.90;;;;;;5095160;23;20117;-77
2021/06/13 02:08:46;;;;;;;7.68;2.90;;;18.10;99.10;;;;;;5092771;28;20480;-77
2021/06/13 02:11:13;;;;;;;5.53;3.00;;;18.00;99.00;;;;;;5093021;28;20399;-77
2021/06/13 02:13:44;;;;;;;6.40;3.03;;;17.90;99.00;;;;;;5093939;28;20544;-77
2021/06/13 02:16:10;;;;;;;6.05;2.97;;;17.90;98.70;;;;;;5088867;28;20080;-77
2021/06/13 02:18:38;;;;;;;6.50;2.80;;;17.80;99.00;;;;;;5091276;28;20116;-77
2021/06/13 02:21:07;;;;;;;5.40;2.60;;;17.70;99.10;;;;;;5073564;28;20094;-77
2021/06/13 02:23:34;;;;;;;5.35;2.58;;;17.70;99.30;;;;;;5071866;28;20024;-77
2021/06/13 02:26:01;;;;;;;5.88;2.90;;;17.80;99.50;;;;;;5075834;28;20039;-77
2021/06/13 02:28:28;;;;;;;5.03;3.00;;;17.80;99.30;;;;;;5094374;28;20039;-77
2021/06/13 02:30:55;;;;;;;8.15;3.55;;;17.80;99.60;;;;;;5074576;28;20109;-77
2021/06/13 02:33:22;;;;;;;5.15;2.95;;;17.80;99.80;;;;;;5076684;28;20476;-77
2021/06/13 02:35:52;;;;;;;4.88;2.75;;;17.90;99.90;;;;;;5065232;28;20025;-77
2021/06/13 02:38:18;;;;;;;6.35;2.90;;;17.80;99.90;;;;;;5073422;28;20093;-77
2021/06/13 02:40:45;;;;;;;7.03;2.70;;;17.90;99.90;;;;;;5072462;28;20020;-78
2021/06/13 02:43:11;;;;;;;5.88;2.72;;;17.90;99.90;;;;;;5076532;28;20095;-77
2021/06/13 02:45:37;;;;;;;5.28;2.95;;;18.00;99.90;;;;;;5079113;28;20103;-77
2021/06/13 02:48:03;;;;;;;6.50;3.00;;;18.00;99.90;;;;;;5073569;28;20105;-77
2021/06/13 02:50:29;;;;;;;6.35;2.88;;;18.00;99.90;;;;;;5074802;28;20021;-78
2021/06/13 02:53:42;;;;;;;5.35;3.00;;;18.00;99.90;;;;;;5072252;28;20565;-77
2021/06/13 02:56:11;;;;;;;5.97;3.40;;;18.00;99.90;;;;;;5073684;28;20016;-77
2021/06/13 02:58:41;;;;;;;5.70;2.80;;;18.00;99.90;;;;;;5073403;28;20093;-77
2021/06/13 03:01:10;;;;;;;7.95;2.83;;;18.00;99.90;;;;;;5055934;28;20068;-77
2021/06/13 03:03:37;;;;;;;5.10;2.80;;;18.00;99.70;;;;;;5054605;28;20025;-77
2021/06/13 03:06:10;;;;;;;4.88;2.45;;;17.90;99.50;;;;;;5098947;28;20119;-77
2021/06/13 03:08:37;;;;;;;5.30;2.42;;;17.90;99.20;;;;;;5113057;28;20019;-77
2021/06/13 03:11:05;;;;;;;7.13;2.65;;;17.90;99.60;;;;;;5095009;28;20032;-77
2021/06/13 03:13:31;;;;;;;5.90;2.95;;;17.90;98.70;;;;;;5070493;28;20024;-78
2021/06/13 03:15:58;;;;;;;6.78;2.90;;;17.80;98.60;;;;;;5092929;28;20027;-77
2021/06/13 03:18:30;;;;;;;4.82;2.38;;;17.80;98.70;;;;;;5086850;28;20107;-77
2021/06/13 03:20:57;;;;;;;4.57;2.40;;;17.80;98.50;;;;;;5055216;28;20103;-77
2021/06/13 03:23:27;;;;;;;4.50;2.25;;;17.80;98.80;;;;;;5072786;28;20025;-77
2021/06/13 03:25:54;;;;;;;5.07;2.20;;;17.80;98.70;;;;;;5072895;28;20079;-78
2021/06/13 03:28:24;;;;;;;4.82;2.15;;;17.70;98.10;;;;;;5073035;28;20027;-77
2021/06/13 03:30:51;;;;;;;5.03;2.35;;;17.70;98.10;;;;;;5072912;28;20027;-77
2021/06/13 03:33:17;;;;;;;4.20;2.42;;;17.70;98.40;;;;;;5076579;28;20037;-77
2021/06/13 03:35:45;;;;;;;7.15;2.50;;;17.70;98.30;;;;;;5092519;28;20089;-77
2021/06/13 03:38:11;;;;;;;5.18;2.45;;;17.60;98.50;;;;;;5077585;28;20074;-77
2021/06/13 03:40:37;;;;;;;4.93;2.53;;;17.50;98.80;;;;;;5054458;28;20112;-77
2021/06/13 03:43:03;;;;;;;5.32;2.60;;;17.50;99.00;;;;;;5072817;28;20032;-77
2021/06/13 03:45:29;;;;;;;6.43;2.95;;;17.50;99.10;;;;;;5087398;28;20021;-77
2021/06/13 03:47:58;;;;;;;4.90;2.30;;;17.50;99.00;;;;;;5077011;28;20037;-77
2021/06/13 03:50:25;;;;;;;6.32;2.80;;;17.50;99.50;;;;;;5072247;28;20095;-77
2021/06/13 03:52:51;;;;;;;5.70;2.65;;;17.60;99.40;;;;;;5075887;28;20028;-77
2021/06/13 03:55:17;;;;;;;5.63;2.45;;;17.60;99.10;;;;;;5104733;28;20443;-77
2021/06/13 03:57:47;;;;;;;4.43;2.60;;;17.60;99.40;;;;;;5072248;28;20024;-77
2021/06/13 04:00:15;;;;;;;5.85;2.58;;;17.60;99.80;;;;;;5073032;28;20119;-78
2021/06/13 04:02:43;;;;;;;5.72;2.38;;;17.60;99.40;;;;;;5070616;28;20508;-77
2021/06/13 04:05:10;;;;;;;4.70;2.28;;;17.60;99.60;;;;;;5080224;28;20032;-77
2021/06/13 04:07:41;;;;;;;7.32;2.55;;;17.60;99.30;;;;;;5112561;28;20472;-77
2021/06/13 04:10:08;;;;;;;5.20;2.45;;;17.60;99.50;;;;;;5112677;28;20023;-77
2021/06/13 04:12:34;;;;;;;6.40;2.35;;;17.60;99.40;;;;;;5107203;28;20039;-77
2021/06/13 04:15:00;;;;;;;5.95;2.50;;;17.50;99.50;;;;;;5082482;28;20028;-77
2021/06/13 04:17:27;;;;;;;5.05;2.05;;;17.60;99.70;;;;;;5092275;28;20157;-77
2021/06/13 04:19:54;;;;;;;5.53;2.42;;;17.50;99.60;;;;;;5091806;28;20076;-77
2021/06/13 04:22:21;;;;;;;5.88;2.38;;;17.50;99.50;;;;;;5077552;28;20039;-77
2021/06/13 04:24:49;;;;;;;7.22;2.35;;;17.50;99.30;;;;;;5072110;28;20028;-78
2021/06/13 04:27:18;;;;;;;4.70;2.55;;;17.50;99.50;;;;;;5070722;28;20027;-77
2021/06/13 04:29:44;;;;;;;5.20;2.25;;;17.50;99.20;;;;;;5070043;28;20077;-77
2021/06/13 04:32:10;;;;;;;4.32;2.13;;;17.60;99.20;;;;;;5071910;28;20139;-77
2021/06/13 04:34:36;;;;;;;5.70;2.50;;;17.70;99.20;;;;;;5063105;28;20024;-77
2021/06/13 04:37:02;;;;;;;5.07;2.17;;;17.70;99.10;;;;;;5111647;28;20023;-77
2021/06/13 04:39:28;;;;;;;4.93;2.78;;;17.80;98.50;;;;;;5096944;28;20107;-77
2021/06/13 04:41:54;;;;;;;5.40;2.08;;;17.80;98.30;;;;;;5071304;28;20115;-77
2021/06/13 04:44:20;;;;;;;6.78;2.45;;;17.80;98.30;;;;;;5075877;28;20020;-77
2021/06/13 04:46:45;;;;;;;5.35;2.13;;;17.90;98.60;;;;;;5091546;28;20012;-77
2021/06/13 04:49:11;;;;;;;6.15;2.45;;;17.80;97.80;;;;;;5084771;28;20090;-77
2021/06/13 04:51:39;;;;;;;5.13;2.45;;;17.90;98.20;;;;;;5071103;28;20504;-77
2021/06/13 04:54:06;;;;;;;5.43;2.35;;;17.90;97.70;;;;;;5052926;28;20071;-77
2021/06/13 04:56:41;;;;;;;6.47;2.30;;;17.80;97.90;;;;;;5083398;28;20024;-77
2021/06/13 04:59:07;;;;;;;5.05;2.40;;;17.80;98.00;;;;;;5054027;28;20059;-77
2021/06/13 05:01:33;;;;;;;5.93;2.22;;;17.80;98.30;;;;;;5071353;28;20107;-77
2021/06/13 05:04:00;;;;;;;5.97;2.47;;;17.90;97.90;;;;;;5071005;28;20031;-77
2021/06/13 05:06:26;;;;;;;4.53;2.00;;;17.80;98.00;;;;;;5070851;28;20194;-77
2021/06/13 05:08:52;;;;;;;6.38;2.45;;;17.80;98.10;;;;;;5052998;28;20492;-77
2021/06/13 05:11:18;;;;;;;6.90;2.25;;;17.80;97.80;;;;;;5071265;28;20090;-77
2021/06/13 05:13:44;;;;;;;5.15;2.40;;;17.90;97.70;;;;;;5071092;28;20488;-77
2021/06/13 05:16:10;;;;;;;7.18;2.47;;;17.90;97.60;;;;;;5090815;28;20038;-77
2021/06/13 05:18:36;;;;;;;4.38;2.08;;;18.00;97.80;;;;;;5070794;28;20056;-77
2021/06/13 05:21:02;;;;;;;4.72;2.10;;;17.90;97.50;;;;;;5073279;28;20380;-77
2021/06/13 05:23:28;;;;;;;7.45;2.80;;;17.80;97.30;;;;;;5091199;28;20376;-77
2021/06/13 05:25:55;;;;;;;6.47;2.47;;;17.90;97.20;;;;;;5080925;28;20044;-77
2021/06/13 05:28:22;;;;;;;4.82;2.40;;;17.90;97.10;;;;;;5071410;28;20029;-77
2021/06/13 05:30:49;;;;;;;6.45;2.15;;;17.90;97.00;;;;;;5053288;28;20028;-77
2021/06/13 05:33:14;;;;;;;4.63;2.28;;;17.90;96.80;;;;;;5073710;28;20108;-77
2021/06/13 05:35:41;;;;;;;6.30;2.45;;;17.80;96.70;;;;;;5095134;28;20066;-77
2021/06/13 05:38:10;;;;;;;6.13;2.47;;;17.80;96.90;;;;;;5093521;28;20024;-77
2021/06/13 05:40:37;;;;;;;6.22;2.40;;;17.90;96.80;;;;;;5094996;28;20024;-77
2021/06/13 05:43:05;;;;;;;5.57;2.10;;;17.90;96.50;;;;;;5085823;28;20071;-77
2021/06/13 05:45:32;;;;;;;6.32;2.00;;;18.10;96.60;;;;;;5088562;28;20152;-77
2021/06/13 05:47:58;;;;;;;4.10;1.83;;;18.20;96.70;;;;;;5094748;28;20421;-77
2021/06/13 05:50:25;;;;;;;4.53;2.15;;;18.40;96.40;;;;;;5094199;28;20019;-77
2021/06/13 05:52:51;;;;;;;4.50;2.03;;;18.40;96.10;;;;;;5094015;28;20621;-77
2021/06/13 05:55:18;;;;;;;5.57;2.60;;;18.50;95.90;;;;;;5076586;28;20028;-77
2021/06/13 05:57:45;;;;;;;3.63;1.95;;;18.40;95.40;;;;;;5094888;28;20032;-77
2021/06/13 06:00:13;;;;;;;6.20;2.20;;;18.30;95.80;;;;;;5103856;28;20038;-77
2021/06/13 06:02:39;;;;;;;5.47;2.10;;;18.40;96.00;;;;;;5114861;28;20035;-77
2021/06/13 06:05:07;;;;;;;5.93;1.98;;;18.50;95.80;;;;;;5096202;28;20059;-77
2021/06/13 06:07:33;;;;;;;5.28;1.75;;;18.60;95.40;;;;;;5088309;28;20108;-78
2021/06/13 06:09:59;;;;;;;6.10;1.98;;;18.70;94.90;;;;;;5074164;28;20092;-77
2021/06/13 06:12:25;;;;;;;5.75;2.10;;;18.90;95.00;;;;;;5074572;28;20481;-77
2021/06/13 06:14:50;;;;;;;3.28;1.75;;;19.00;94.20;;;;;;5089629;28;20028;-77
2021/06/13 06:17:16;;;;;;;5.25;1.70;;;19.00;94.30;;;;;;5083286;28;20052;-77
2021/06/13 06:19:42;;;;;;;4.45;1.70;;;19.00;94.00;;;;;;5093589;28;20020;-77
2021/06/13 06:22:08;;;;;;;4.78;1.50;;;19.10;93.80;;;;;;5073954;28;20040;-77
2021/06/13 06:24:38;;;;;;;3.88;1.60;;;19.10;93.90;;;;;;5073566;28;20024;-77
2021/06/13 06:27:04;;;;;;;5.78;1.58;;;19.10;94.00;;;;;;5055702;28;20497;-77
2021/06/13 06:29:30;;;;;;;3.88;1.48;;;19.20;93.50;;;;;;5073759;28;20024;-77
2021/06/13 06:31:56;;;;;;;4.22;1.67;;;19.20;93.70;;;;;;5093453;28;20020;-77
2021/06/13 06:34:22;;;;;;;4.13;1.33;;;19.20;93.50;;;;;;5092333;28;20051;-77
2021/06/13 06:36:48;;;;;;;3.65;1.42;;;19.20;93.20;;;;;;5073966;28;20036;-77
2021/06/13 06:39:17;;;;;;;6.25;1.92;;;19.30;93.20;;;;;;5055577;28;20032;-77
2021/06/13 06:41:43;;;;;;;3.22;1.50;;;19.10;93.50;;;;;;5075135;28;20475;-77
2021/06/13 06:44:10;;;;;;;4.07;1.92;;;19.20;93.70;;;;;;5072711;28;20456;-78
2021/06/13 06:46:37;;;;;;;3.20;1.50;;;19.30;93.30;;;;;;5073953;28;20048;-77
2021/06/13 06:49:04;;;;;;;5.07;1.90;;;19.40;93.40;;;;;;5074244;28;20049;-78
2021/06/13 06:51:30;;;;;;;5.05;1.90;;;19.40;93.50;;;;;;5073647;28;20361;-78
2021/06/13 06:53:57;;;;;;;4.80;1.92;;;19.50;93.50;;;;;;5078502;28;20081;-78
2021/06/13 06:56:27;;;;;;;4.57;1.73;;;19.60;93.20;;;;;;5079625;28;20024;-78
2021/06/13 06:58:55;;;;;;;6.32;2.00;;;19.70;93.00;;;;;;5093396;28;20031;-77
2021/06/13 07:01:21;;;;;;;4.57;1.67;;;19.80;92.80;;;;;;5092955;28;20085;-78
2021/06/13 07:03:47;;;;;;;4.47;1.90;;;19.70;92.90;;;;;;5095409;28;20055;-78
2021/06/13 07:06:13;;;;;;;6.43;2.00;;;19.90;92.80;;;;;;5093606;28;20117;-78
2021/06/13 07:08:39;;;;;;;4.95;1.95;;;20.00;92.60;;;;;;5085577;28;20452;-78
2021/06/13 07:11:05;;;;;;;3.50;1.65;;;20.10;92.70;;;;;;5082536;28;20028;-78
2021/06/13 07:13:31;;;;;;;5.53;1.77;;;20.10;92.40;;;;;;5093372;28;20020;-79
2021/06/13 07:15:57;;;;;;;5.47;1.60;;;20.30;92.00;;;;;;5087181;28;20122;-77
2021/06/13 07:18:23;;;;;;;4.40;2.10;;;20.30;91.80;;;;;;5076775;28;20023;-78
2021/06/13 07:20:49;;;;;;;5.38;1.70;;;20.20;91.90;;;;;;5094358;28;20013;-77
2021/06/13 07:23:14;;;;;;;4.68;2.03;;;20.20;91.80;;;;;;5092219;28;20095;-78
2021/06/13 07:25:40;;;;;;;3.97;2.10;;;20.10;92.10;;;;;;5092745;28;20053;-78
2021/06/13 07:28:06;;;;;;;4.60;2.17;;;20.30;91.80;;;;;;5082031;28;20028;-77
2021/06/13 07:30:33;;;;;;;3.78;1.60;;;20.10;91.50;;;;;;5094607;28;20026;-78
2021/06/13 07:33:02;;;;;;;4.15;1.60;;;20.20;92.00;;;;;;5094776;28;20492;-78
2021/06/13 07:35:28;;;;;;;3.50;1.83;;;20.30;92.00;;;;;;5079253;28;20539;-77
2021/06/13 07:37:54;;;;;;;4.22;1.90;;;20.40;91.90;;;;;;5090074;28;20099;-78
2021/06/13 07:40:21;;;;;;;4.32;1.45;;;20.60;91.30;;;;;;5094533;28;20527;-78
2021/06/13 07:42:47;;;;;;;4.82;1.85;;;20.60;91.30;;;;;;5073467;28;20536;-77
2021/06/13 07:45:13;;;;;;;4.00;1.83;;;20.60;91.30;;;;;;5069884;28;20067;-78
2021/06/13 07:47:40;;;;;;;4.20;1.90;;;20.50;91.40;;;;;;5076896;28;20479;-78
2021/06/13 07:50:08;;;;;;;3.58;1.73;;;20.60;91.10;;;;;;5076509;28;20035;-78
2021/06/13 07:52:34;;;;;;;6.53;2.20;;;20.60;91.20;;;;;;5091561;28;20032;-78
2021/06/13 07:55:00;;;;;;;4.93;2.35;;;20.60;91.30;;;;;;5092615;28;20032;-78
2021/06/13 07:57:25;;;;;;;4.82;2.00;;;20.80;90.70;;;;;;5091828;28;20020;-78
2021/06/13 07:59:51;;;;;;;5.78;2.17;;;20.80;90.80;;;;;;5095777;28;20024;-78
2021/06/13 08:02:17;;;;;;;4.57;1.85;;;20.90;90.30;;;;;;5091731;28;20065;-78
2021/06/13 08:05:24;;;;;;;5.53;2.03;;;20.70;90.60;;;;;;5084381;28;20028;-78
2021/06/13 08:07:35;;;;;;;5.45;1.80;;;20.80;90.40;;;;;;5091875;28;20048;-77
2021/06/13 08:10:04;;;;;;;4.03;1.67;;;20.80;90.40;;;;;;5091511;28;20405;-79
2021/06/13 08:12:30;;;;;;;4.78;1.80;;;20.90;90.50;;;;;;5089807;28;20028;-78
2021/06/13 08:14:55;;;;;;;5.47;2.15;;;21.00;90.30;;;;;;5087193;28;20020;-78
2021/06/13 08:17:21;;;;;;;5.43;2.03;;;21.00;90.30;;;;;;5072366;28;20036;-79
2021/06/13 08:19:47;;;;;;;3.78;1.70;;;21.20;89.00;;;;;;5073990;28;20028;-78
2021/06/13 08:22:12;;;;;;;4.07;1.50;;;21.40;89.20;;;;;;5086022;28;20023;-79
2021/06/13 08:24:38;;;;;;;5.40;1.98;;;21.50;89.50;;;;;;5085285;28;20023;-79
2021/06/13 08:27:07;;;;;;;6.43;1.83;;;21.50;87.80;;;;;;5087159;28;20373;-79
2021/06/13 08:29:33;;;;;;;6.00;2.35;;;21.50;87.90;;;;;;5086152;28;20017;-79
2021/06/13 08:31:59;;;;;;;3.75;1.73;;;21.50;88.00;;;;;;5080152;28;20496;-79
2021/06/13 08:34:25;;;;;;;6.20;2.00;;;21.40;87.20;;;;;;5079146;28;20067;-79
2021/06/13 08:36:51;;;;;;;5.40;1.50;;;21.30;88.10;;;;;;5071359;28;20492;-84
2021/06/13 08:39:17;;;;;;;3.42;1.73;;;21.50;88.00;;;;;;5068001;28;20032;-84
2021/06/13 08:41:43;;;;;;;6.35;1.60;;;21.60;87.60;;;;;;5067654;28;20086;-84
2021/06/13 08:44:09;;;;;;;4.07;1.52;;;21.70;84.50;;;;;;5068747;28;20480;-84
2021/06/13 08:46:38;;;;;;;3.85;1.45;;;21.80;84.40;;;;;;5083500;28;20111;-84
2021/06/13 08:49:04;;;;;;;4.00;1.52;;;21.90;85.30;;;;;;5089589;28;20388;-84
2021/06/13 08:51:30;;;;;;;4.88;1.98;;;22.00;84.30;;;;;;5081330;28;20173;-84
2021/06/13 08:53:55;;;;;;;4.05;1.92;;;21.90;84.50;;;;;;5061745;28;20610;-83
2021/06/13 08:56:22;;;;;;;5.30;1.88;;;21.80;84.40;;;;;;5065706;28;20024;-82
2021/06/13 08:58:49;;;;;;;4.90;2.00;;;21.80;85.10;;;;;;5066251;28;20539;-82
2021/06/13 09:01:15;;;;;;;4.78;1.60;;;21.90;85.00;;;;;;5085089;28;20088;-82
2021/06/13 09:03:41;;;;;;;4.03;1.60;;;21.90;84.60;;;;;;5076493;28;20772;-83
2021/06/13 09:06:07;;;;;;;3.83;1.40;;;21.90;84.30;;;;;;5053803;28;20040;-83
2021/06/13 09:08:41;;;;;;;4.97;1.60;;;22.30;84.40;;;;;;5065341;28;20111;-84
2021/06/13 09:11:08;;;;;;;4.82;1.83;;;22.30;83.80;;;;;;5072535;28;20484;-83
2021/06/13 09:13:37;;;;;;;4.95;1.80;;;22.10;83.60;;;;;;5089223;28;20035;-83
2021/06/13 09:16:08;;;;;;;4.95;1.67;;;22.10;83.10;;;;;;5070563;28;20021;-83
2021/06/13 09:18:35;;;;;;;;;;;22.30;83.10;;;;;;5071310;28;20016;-83
2021/06/13 09:21:02;;;;;;;4.28;1.95;;;22.40;82.90;;;;;;5089345;28;19912;-83
2021/06/13 09:23:29;;;;;;;6.70;2.15;;;22.40;82.80;;;;;;5088885;28;20065;-84
2021/06/13 09:26:06;;;;;;;3.83;1.73;;;22.50;82.00;;;;;;5085262;28;20031;-83
2021/06/13 09:28:35;;;;;;;4.82;1.80;;;22.40;83.10;;;;;;5072775;28;20100;-83
2021/06/13 09:31:02;;;;;;;4.10;1.80;;;22.60;83.20;;;;;;5072725;28;20660;-83
2021/06/13 09:33:33;;;;;;;4.80;1.90;;;22.80;81.50;;;;;;5088731;28;20047;-82
2021/06/13 09:36:01;;;;;;;4.75;1.77;;;22.80;82.10;;;;;;5092399;28;20016;-83
2021/06/13 09:38:42;;;;;;;4.80;1.60;;;22.90;80.90;;;;;;5064309;28;20035;-83
2021/06/13 09:41:17;;;;;;;3.72;1.13;;;23.00;80.50;;;;;;5075555;28;20038;-83
2021/06/13 09:43:47;;;;;;;2.70;1.10;;;23.30;79.20;;;;;;5089953;28;20557;-82
2021/06/13 09:46:18;;;;;;;3.85;1.30;;;23.50;76.10;;;;;;5076650;28;20017;-83
2021/06/13 09:48:49;;;;;;;;;;;23.50;76.80;;;;;;5076709;28;20085;-83
2021/06/13 09:51:19;;;;;;;4.30;1.30;;;23.50;77.80;;;;;;5064948;28;19923;-82
2021/06/13 09:53:50;;;;;;;3.42;1.60;;;23.80;78.90;;;;;;5089940;28;20032;-82
2021/06/13 09:56:39;;;;;;;3.28;1.52;;;24.00;76.20;;;;;;5072791;28;20106;-83
2021/06/13 09:59:10;;;;;;;4.00;1.52;;;24.10;75.30;;;;;;5087949;28;20123;-83
2021/06/13 10:01:48;;;;;;;3.65;1.30;;;24.00;75.90;;;;;;5086487;28;20030;-83
2021/06/13 10:04:17;;;;;;;4.57;1.58;;;24.20;75.50;;;;;;5077058;28;20020;-83
2021/06/13 10:06:43;;;;;;;3.22;1.60;;;24.30;75.30;;;;;;5090856;28;20456;-84
2021/06/13 10:09:08;;;;;;;4.22;1.30;;;24.20;74.30;;;;;;5075234;28;20055;-83
2021/06/13 10:11:37;;;;;;;4.13;1.10;;;24.20;74.90;;;;;;5079801;28;20032;-83
2021/06/13 10:14:10;;;;;;;4.55;1.10;;;24.30;72.00;;;;;;5091823;28;20387;-83
2021/06/13 10:16:49;;;;;;;2.42;1.00;;;24.10;72.50;;;;;;5087893;28;20024;-83
2021/06/13 10:19:26;;;;;;;3.17;1.13;;;24.40;71.50;;;;;;5091104;28;20020;-83
2021/06/13 10:21:52;;;;;;;5.15;1.00;;;24.20;70.10;;;;;;5090440;28;20563;-83
2021/06/13 10:24:32;;;;;;;3.22;1.75;;;24.40;71.50;;;;;;5091335;28;20020;-84
2021/06/13 10:27:00;;;;;;;4.22;1.00;;;24.70;70.90;;;;;;5069284;28;20027;-83
2021/06/13 10:29:28;;;;;;;3.05;1.45;;;25.00;69.60;;;;;;5076462;28;20103;-83
2021/06/13 10:31:57;;;;;;;2.17;0.80;;;25.00;69.10;;;;;;5075187;28;20070;-83
2021/06/13 10:34:24;;;;;;;3.70;1.00;;;25.10;68.70;;;;;;5071979;28;20032;-84
2021/06/13 10:36:51;;;;;;;4.75;1.10;;;25.10;69.60;;;;;;5075427;28;20024;-83
2021/06/13 10:39:22;;;;;;;4.75;1.20;;;24.90;68.00;;;;;;5090968;28;20107;-83
2021/06/13 10:41:48;;;;;;;2.97;1.03;;;24.90;69.30;;;;;;5091011;28;20377;-83
2021/06/13 10:44:16;;;;;;;2.85;1.10;;;24.90;67.10;;;;;;5078992;28;20065;-84
2021/06/13 10:46:47;;;;;;;2.90;1.00;;;25.00;66.30;;;;;;5072997;28;20372;-84
2021/06/13 10:49:27;;;;;;;;;;;25.10;67.10;;;;;;5080218;28;20024;-83
2021/06/13 10:52:10;;;;;;;5.18;1.05;;;25.10;64.10;;;;;;5079054;28;19908;-83
2021/06/13 10:54:57;;;;;;;2.60;1.08;;;25.20;64.30;;;;;;5083866;28;20045;-83
2021/06/13 10:57:24;;;;;;;2.97;1.00;;;25.20;65.20;;;;;;5073473;28;20016;-83
2021/06/13 10:59:58;;;;;;;3.65;1.00;;;25.50;65.10;;;;;;5089722;28;20035;-84
2021/06/13 11:02:49;;;;;;;2.05;1.00;;;25.70;65.40;;;;;;5087170;28;20477;-83
2021/06/13 11:05:37;;;;;;;3.38;1.10;;;25.70;64.10;;;;;;5080803;28;20064;-83
2021/06/13 11:08:03;;;;;;;3.78;0.90;;;25.70;64.60;;;;;;5070348;28;20032;-85
2021/06/13 11:10:32;;;;;;;5.13;1.10;;;26.20;61.80;;;;;;5087764;28;20020;-84
2021/06/13 11:13:03;;;;;;;3.20;0.90;;;26.10;61.80;;;;;;5088560;28;20490;-83
2021/06/13 11:15:34;;;;;;;2.25;1.02;;;25.70;62.30;;;;;;5086478;28;20114;-84
2021/06/13 11:18:17;;;;;;;5.18;0.95;;;25.90;62.40;;;;;;5068828;28;20058;-83
2021/06/13 11:21:09;;;;;;;3.83;1.50;;;25.60;61.10;;;;;;5076476;28;20031;-83
2021/06/13 11:23:35;;;;;;;3.25;0.82;;;25.80;62.50;;;;;;5078500;28;20016;-83
2021/06/13 11:26:03;;;;;;;2.40;0.98;;;26.10;61.70;;;;;;5074787;28;20024;-84
2021/06/13 11:28:35;;;;;;;2.38;0.90;;;26.30;60.90;;;;;;5090283;28;20081;-83
2021/06/13 11:31:19;;;;;;;3.00;0.98;;;26.60;60.30;;;;;;5089171;28;20060;-84
2021/06/13 11:33:52;;;;;;;2.97;0.98;;;26.80;60.20;;;;;;5082579;28;20073;-84
2021/06/13 11:36:23;;;;;;;3.88;1.13;;;26.80;59.40;;;;;;5091286;28;20032;-84
2021/06/13 11:39:02;;;;;;;2.25;0.80;;;27.00;59.20;;;;;;5074261;28;20023;-84
2021/06/13 11:41:43;;;;;;;4.53;1.00;;;27.30;58.90;;;;;;5086756;28;20031;-84
2021/06/13 11:44:20;;;;;;;3.27;0.90;;;27.40;59.20;;;;;;5088149;28;20059;-84
2021/06/13 11:46:48;;;;;;;2.35;1.00;;;27.40;58.10;;;;;;5073110;28;20069;-84
2021/06/13 11:49:19;;;;;;;2.40;0.70;;;27.40;56.80;;;;;;5072986;28;20115;-84
2021/06/13 11:51:56;;;;;;;1.95;0.80;;;27.50;57.10;;;;;;5085578;28;20024;-84
2021/06/13 11:54:36;;;;;;;2.47;0.85;;;27.10;56.90;;;;;;5069064;28;20072;-84
2021/06/13 11:57:04;;;;;;;2.65;0.60;;;27.40;56.40;;;;;;5088866;28;20020;-84
2021/06/13 11:59:30;;;;;;;2.20;0.70;;;27.60;56.20;;;;;;5067682;28;20545;-84
2021/06/13 12:02:00;;;;;;;2.33;0.80;;;27.90;56.50;;;;;;5084428;28;20040;-84
2021/06/13 12:04:28;;;;;;;1.60;0.55;;;28.10;52.90;;;;;;5086463;28;20054;-84
2021/06/13 12:06:55;;;;;;;1.45;0.60;;;27.70;52.60;;;;;;5089916;28;20052;-84
2021/06/13 12:09:22;;;;;;;2.08;0.60;;;28.00;49.80;;;;;;5074247;28;20451;-85
2021/06/13 12:11:52;;;;;;;2.78;0.70;;;28.10;51.60;;;;;;5071135;28;20111;-84
2021/06/13 12:14:22;;;;;;;2.53;0.90;;;27.70;54.40;;;;;;5089686;28;20016;-86
2021/06/13 12:16:54;;;;;;;1.77;0.73;;;28.10;52.80;;;;;;5073964;28;20036;-84
2021/06/13 12:19:31;;;;;;;1.77;0.70;;;28.20;52.00;;;;;;5077374;28;20024;-85
2021/06/13 12:22:30;;;;;;;3.85;0.93;;;28.20;52.20;;;;;;5086776;28;20076;-84
2021/06/13 12:27:35;;;;;;;3.78;0.90;;;28.80;51.20;;;;;;5086520;28;20526;-84
2021/06/13 12:30:18;;;;;;;1.98;0.70;;;28.40;52.20;;;;;;5065490;28;20542;-85
2021/06/13 12:32:53;;;;;;;2.58;0.80;;;28.70;51.60;;;;;;5088154;28;20208;-84
2021/06/13 12:35:18;;;;;;;2.05;0.70;;;29.10;51.60;;;;;;5069720;28;20111;-85
2021/06/13 12:38:18;;;;;;;3.40;0.93;;;28.80;51.40;;;;;;5073129;28;20103;-84
2021/06/13 12:40:52;;;;;;;2.92;0.77;;;28.70;51.70;;;;;;5086869;28;20031;-84
2021/06/13 12:43:43;;;;;;;1.67;0.63;;;28.20;50.80;;;;;;5071209;28;21603;-85
2021/06/13 12:46:11;;;;;;;2.03;1.10;;;28.50;51.40;;;;;;5087200;28;20537;-84
2021/06/13 12:48:37;;;;;;;2.97;0.82;;;28.60;50.00;;;;;;5086730;28;20878;-84
2021/06/13 12:51:03;;;;;;;1.63;0.57;;;28.70;48.70;;;;;;5072605;28;20047;-85
2021/06/13 12:53:43;;;;;;;1.98;0.70;;;29.00;49.40;;;;;;5089293;28;20099;-85
2021/06/13 12:56:09;;;;;;;1.95;0.80;;;29.00;48.50;;;;;;5085684;28;20044;-85
2021/06/13 12:58:40;;;;;;;2.15;0.88;;;29.30;48.60;;;;;;5072851;28;20432;-85
2021/06/13 13:01:07;;;;;;;3.08;0.93;;;29.30;47.10;;;;;;5070262;28;20069;-84